sensor_id;sensor_type;location;lat;lon;timestamp;P1;durP1;ratioP1;P2;durP2;ratioP2
75377;SDS011;63959;51.960;5.886;2023-06-22T00:01:30;4.60;;;2.15;;
75377;SDS011;63959;51.960;5.886;2023-06-22T00:04:05;5.93;;;2.17;;
75377;SDS011;63959;51.960;5.886;2023-06-22T00:06:33;6.30;;;2.60;;
75377;SDS011;63959;51.960;5.886;2023-06-22T00:09:03;5.60;;;2.30;;
75377;SDS011;63959;51.960;5.886;2023-06-22T00:11:32;5.20;;;2.40;;
75377;SDS011;63959;51.960;5.886;2023-06-22T00:14:02;4.07;;;2.10;;
75377;SDS011;63959;51.960;5.886;2023-06-22T00:16:31;6.25;;;2.50;;
75377;SDS011;63959;51.960;5.886;2023-06-22T00:19:05;5.70;;;2.72;;
75377;SDS011;63959;51.960;5.886;2023-06-22T00:21:37;5.63;;;2.58;;
75377;SDS011;63959;51.960;5.886;2023-06-22T00:24:06;4.53;;;2.10;;
75377;SDS011;63959;51.960;5.886;2023-06-22T00:26:35;4.95;;;2.17;;
75377;SDS011;63959;51.960;5.886;2023-06-22T00:29:07;4.43;;;2.25;;
75377;SDS011;63959;51.960;5.886;2023-06-22T00:31:36;6.30;;;3.63;;
75377;SDS011;63959;51.960;5.886;2023-06-22T00:34:08;6.18;;;3.08;;
75377;SDS011;63959;51.960;5.886;2023-06-22T00:36:37;5.30;;;2.22;;
75377;SDS011;63959;51.960;5.886;2023-06-22T00:39:06;5.00;;;2.25;;
75377;SDS011;63959;51.960;5.886;2023-06-22T00:41:36;6.50;;;3.05;;
75377;SDS011;63959;51.960;5.886;2023-06-22T00:44:05;5.10;;;2.72;;
75377;SDS011;63959;51.960;5.886;2023-06-22T00:46:34;6.22;;;2.42;;
75377;SDS011;63959;51.960;5.886;2023-06-22T00:49:07;4.93;;;2.60;;
75377;SDS011;63959;51.960;5.886;2023-06-22T00:51:37;5.57;;;3.08;;
75377;SDS011;63959;51.960;5.886;2023-06-22T00:54:14;4.90;;;2.35;;
75377;SDS011;63959;51.960;5.886;2023-06-22T00:56:50;3.78;;;1.77;;
75377;SDS011;63959;51.960;5.886;2023-06-22T00:59:20;6.15;;;3.17;;
75377;SDS011;63959;51.960;5.886;2023-06-22T01:01:49;6.38;;;3.20;;
75377;SDS011;63959;51.960;5.886;2023-06-22T01:04:21;6.60;;;3.50;;
75377;SDS011;63959;51.960;5.886;2023-06-22T01:06:53;5.88;;;2.78;;
75377;SDS011;63959;51.960;5.886;2023-06-22T01:09:25;7.50;;;3.13;;
75377;SDS011;63959;51.960;5.886;2023-06-22T01:11:57;5.30;;;2.90;;
75377;SDS011;63959;51.960;5.886;2023-06-22T01:14:27;6.45;;;2.90;;
75377;SDS011;63959;51.960;5.886;2023-06-22T01:16:57;6.20;;;2.97;;
75377;SDS011;63959;51.960;5.886;2023-06-22T01:19:37;4.88;;;2.58;;
75377;SDS011;63959;51.960;5.886;2023-06-22T01:22:08;6.15;;;2.70;;
75377;SDS011;63959;51.960;5.886;2023-06-22T01:24:42;6.20;;;3.30;;
75377;SDS011;63959;51.960;5.886;2023-06-22T01:27:17;5.30;;;2.78;;
75377;SDS011;63959;51.960;5.886;2023-06-22T01:29:56;6.15;;;2.72;;
75377;SDS011;63959;51.960;5.886;2023-06-22T01:32:26;6.25;;;2.90;;
75377;SDS011;63959;51.960;5.886;2023-06-22T01:34:57;6.05;;;2.40;;
75377;SDS011;63959;51.960;5.886;2023-06-22T01:37:30;7.30;;;3.05;;
75377;SDS011;63959;51.960;5.886;2023-06-22T01:40:00;5.25;;;2.38;;
75377;SDS011;63959;51.960;5.886;2023-06-22T01:42:30;5.28;;;2.40;;
75377;SDS011;63959;51.960;5.886;2023-06-22T01:45:02;5.97;;;2.80;;
75377;SDS011;63959;51.960;5.886;2023-06-22T01:47:33;4.47;;;2.30;;
75377;SDS011;63959;51.960;5.886;2023-06-22T01:50:03;5.45;;;2.75;;
75377;SDS011;63959;51.960;5.886;2023-06-22T01:52:32;5.28;;;2.30;;
75377;SDS011;63959;51.960;5.886;2023-06-22T01:55:03;4.95;;;2.53;;
75377;SDS011;63959;51.960;5.886;2023-06-22T01:57:33;5.95;;;3.53;;
75377;SDS011;63959;51.960;5.886;2023-06-22T02:00:07;5.13;;;2.60;;
75377;SDS011;63959;51.960;5.886;2023-06-22T02:02:43;4.45;;;2.33;;
75377;SDS011;63959;51.960;5.886;2023-06-22T02:05:16;7.07;;;2.88;;
75377;SDS011;63959;51.960;5.886;2023-06-22T02:07:49;6.95;;;3.85;;
75377;SDS011;63959;51.960;5.886;2023-06-22T02:10:19;6.03;;;3.03;;
75377;SDS011;63959;51.960;5.886;2023-06-22T02:12:49;5.15;;;2.90;;
75377;SDS011;63959;51.960;5.886;2023-06-22T02:15:21;6.57;;;2.75;;
75377;SDS011;63959;51.960;5.886;2023-06-22T02:17:53;6.10;;;2.53;;
75377;SDS011;63959;51.960;5.886;2023-06-22T02:20:23;4.32;;;2.28;;
75377;SDS011;63959;51.960;5.886;2023-06-22T02:22:52;6.40;;;2.50;;
75377;SDS011;63959;51.960;5.886;2023-06-22T02:25:21;6.28;;;2.80;;
75377;SDS011;63959;51.960;5.886;2023-06-22T02:27:50;4.95;;;2.65;;
75377;SDS011;63959;51.960;5.886;2023-06-22T02:30:22;7.18;;;3.63;;
75377;SDS011;63959;51.960;5.886;2023-06-22T02:32:50;5.60;;;3.00;;
75377;SDS011;63959;51.960;5.886;2023-06-22T02:35:24;5.40;;;2.45;;
75377;SDS011;63959;51.960;5.886;2023-06-22T02:37:57;6.25;;;3.50;;
75377;SDS011;63959;51.960;5.886;2023-06-22T02:40:26;7.28;;;3.47;;
75377;SDS011;63959;51.960;5.886;2023-06-22T02:42:56;6.00;;;3.15;;
75377;SDS011;63959;51.960;5.886;2023-06-22T02:45:30;4.93;;;2.53;;
75377;SDS011;63959;51.960;5.886;2023-06-22T02:47:59;6.90;;;3.28;;
75377;SDS011;63959;51.960;5.886;2023-06-22T02:50:28;6.85;;;3.65;;
75377;SDS011;63959;51.960;5.886;2023-06-22T02:52:58;7.35;;;4.00;;
75377;SDS011;63959;51.960;5.886;2023-06-22T02:55:35;6.50;;;3.25;;
75377;SDS011;63959;51.960;5.886;2023-06-22T02:58:06;6.07;;;3.50;;
75377;SDS011;63959;51.960;5.886;2023-06-22T03:00:40;8.35;;;4.95;;
75377;SDS011;63959;51.960;5.886;2023-06-22T03:03:09;6.75;;;4.22;;
75377;SDS011;63959;51.960;5.886;2023-06-22T03:05:38;6.25;;;3.30;;
75377;SDS011;63959;51.960;5.886;2023-06-22T03:08:10;7.90;;;4.07;;
75377;SDS011;63959;51.960;5.886;2023-06-22T03:10:39;6.22;;;3.80;;
75377;SDS011;63959;51.960;5.886;2023-06-22T03:13:08;10.07;;;5.70;;
75377;SDS011;63959;51.960;5.886;2023-06-22T03:15:37;8.05;;;4.50;;
75377;SDS011;63959;51.960;5.886;2023-06-22T03:18:08;7.95;;;4.10;;
75377;SDS011;63959;51.960;5.886;2023-06-22T03:20:37;7.15;;;4.03;;
75377;SDS011;63959;51.960;5.886;2023-06-22T03:23:09;10.25;;;5.40;;
75377;SDS011;63959;51.960;5.886;2023-06-22T03:25:41;5.72;;;3.30;;
75377;SDS011;63959;51.960;5.886;2023-06-22T03:28:10;7.25;;;4.25;;
75377;SDS011;63959;51.960;5.886;2023-06-22T03:30:41;7.57;;;4.25;;
75377;SDS011;63959;51.960;5.886;2023-06-22T03:33:12;10.40;;;5.78;;
75377;SDS011;63959;51.960;5.886;2023-06-22T03:35:42;8.55;;;4.80;;
75377;SDS011;63959;51.960;5.886;2023-06-22T03:38:11;7.47;;;4.53;;
75377;SDS011;63959;51.960;5.886;2023-06-22T03:40:40;7.22;;;4.72;;
75377;SDS011;63959;51.960;5.886;2023-06-22T03:43:09;9.98;;;6.45;;
75377;SDS011;63959;51.960;5.886;2023-06-22T03:45:39;9.30;;;6.35;;
75377;SDS011;63959;51.960;5.886;2023-06-22T03:48:14;14.10;;;9.00;;
75377;SDS011;63959;51.960;5.886;2023-06-22T03:50:42;10.05;;;6.63;;
75377;SDS011;63959;51.960;5.886;2023-06-22T03:53:12;11.88;;;7.45;;
75377;SDS011;63959;51.960;5.886;2023-06-22T03:55:47;9.00;;;6.07;;
75377;SDS011;63959;51.960;5.886;2023-06-22T03:58:17;10.90;;;7.70;;
75377;SDS011;63959;51.960;5.886;2023-06-22T04:00:46;10.80;;;7.55;;
75377;SDS011;63959;51.960;5.886;2023-06-22T04:03:18;12.40;;;7.15;;
75377;SDS011;63959;51.960;5.886;2023-06-22T04:05:47;11.60;;;8.00;;
75377;SDS011;63959;51.960;5.886;2023-06-22T04:08:15;14.20;;;9.18;;
75377;SDS011;63959;51.960;5.886;2023-06-22T04:10:44;14.15;;;9.68;;
75377;SDS011;63959;51.960;5.886;2023-06-22T04:13:13;14.73;;;10.20;;
75377;SDS011;63959;51.960;5.886;2023-06-22T04:15:42;15.45;;;10.85;;
75377;SDS011;63959;51.960;5.886;2023-06-22T04:18:10;14.90;;;10.13;;
75377;SDS011;63959;51.960;5.886;2023-06-22T04:20:42;16.42;;;12.18;;
75377;SDS011;63959;51.960;5.886;2023-06-22T04:23:12;22.75;;;14.45;;
75377;SDS011;63959;51.960;5.886;2023-06-22T04:25:41;12.13;;;9.02;;
75377;SDS011;63959;51.960;5.886;2023-06-22T04:28:10;14.73;;;10.27;;
75377;SDS011;63959;51.960;5.886;2023-06-22T04:30:39;17.13;;;11.52;;
75377;SDS011;63959;51.960;5.886;2023-06-22T04:33:12;15.93;;;11.07;;
75377;SDS011;63959;51.960;5.886;2023-06-22T04:35:44;13.88;;;10.02;;
75377;SDS011;63959;51.960;5.886;2023-06-22T04:38:13;15.68;;;10.88;;
75377;SDS011;63959;51.960;5.886;2023-06-22T04:40:41;15.88;;;11.23;;
75377;SDS011;63959;51.960;5.886;2023-06-22T04:43:10;18.73;;;12.93;;
75377;SDS011;63959;51.960;5.886;2023-06-22T04:45:39;19.50;;;14.88;;
75377;SDS011;63959;51.960;5.886;2023-06-22T04:48:11;18.83;;;14.15;;
75377;SDS011;63959;51.960;5.886;2023-06-22T04:50:44;17.75;;;13.27;;
75377;SDS011;63959;51.960;5.886;2023-06-22T04:53:13;21.17;;;16.17;;
75377;SDS011;63959;51.960;5.886;2023-06-22T04:55:41;21.13;;;15.43;;
75377;SDS011;63959;51.960;5.886;2023-06-22T04:58:12;18.08;;;13.48;;
75377;SDS011;63959;51.960;5.886;2023-06-22T05:00:40;19.58;;;14.45;;
75377;SDS011;63959;51.960;5.886;2023-06-22T05:03:10;23.05;;;18.10;;
75377;SDS011;63959;51.960;5.886;2023-06-22T05:05:39;21.55;;;14.48;;
75377;SDS011;63959;51.960;5.886;2023-06-22T05:08:10;17.27;;;13.07;;
75377;SDS011;63959;51.960;5.886;2023-06-22T05:10:39;24.02;;;17.08;;
75377;SDS011;63959;51.960;5.886;2023-06-22T05:13:07;21.30;;;14.75;;
75377;SDS011;63959;51.960;5.886;2023-06-22T05:15:36;16.65;;;12.68;;
75377;SDS011;63959;51.960;5.886;2023-06-22T05:18:06;25.08;;;18.83;;
75377;SDS011;63959;51.960;5.886;2023-06-22T05:20:37;22.67;;;15.30;;
75377;SDS011;63959;51.960;5.886;2023-06-22T05:23:06;19.35;;;14.68;;
75377;SDS011;63959;51.960;5.886;2023-06-22T05:25:37;21.27;;;15.38;;
75377;SDS011;63959;51.960;5.886;2023-06-22T05:28:06;19.13;;;14.65;;
75377;SDS011;63959;51.960;5.886;2023-06-22T05:30:38;25.65;;;19.35;;
75377;SDS011;63959;51.960;5.886;2023-06-22T05:33:07;18.02;;;13.75;;
75377;SDS011;63959;51.960;5.886;2023-06-22T05:35:35;18.02;;;14.18;;
75377;SDS011;63959;51.960;5.886;2023-06-22T05:38:04;19.42;;;14.55;;
75377;SDS011;63959;51.960;5.886;2023-06-22T05:40:33;17.27;;;13.23;;
75377;SDS011;63959;51.960;5.886;2023-06-22T05:43:04;16.45;;;12.65;;
75377;SDS011;63959;51.960;5.886;2023-06-22T05:45:33;19.17;;;15.13;;
75377;SDS011;63959;51.960;5.886;2023-06-22T05:48:01;16.88;;;12.27;;
75377;SDS011;63959;51.960;5.886;2023-06-22T05:50:30;21.25;;;15.35;;
75377;SDS011;63959;51.960;5.886;2023-06-22T05:52:59;14.18;;;10.82;;
75377;SDS011;63959;51.960;5.886;2023-06-22T05:55:28;17.02;;;12.23;;
75377;SDS011;63959;51.960;5.886;2023-06-22T05:57:56;15.70;;;11.63;;
75377;SDS011;63959;51.960;5.886;2023-06-22T06:00:28;15.90;;;12.25;;
75377;SDS011;63959;51.960;5.886;2023-06-22T06:02:57;16.42;;;11.80;;
75377;SDS011;63959;51.960;5.886;2023-06-22T06:05:29;17.05;;;11.68;;
75377;SDS011;63959;51.960;5.886;2023-06-22T06:07:59;15.65;;;12.23;;
75377;SDS011;63959;51.960;5.886;2023-06-22T06:10:28;18.70;;;14.07;;
75377;SDS011;63959;51.960;5.886;2023-06-22T06:12:57;16.25;;;11.77;;
75377;SDS011;63959;51.960;5.886;2023-06-22T06:15:30;15.80;;;12.80;;
75377;SDS011;63959;51.960;5.886;2023-06-22T06:17:58;13.40;;;10.68;;
75377;SDS011;63959;51.960;5.886;2023-06-22T06:20:28;16.05;;;11.05;;
75377;SDS011;63959;51.960;5.886;2023-06-22T06:22:56;16.13;;;12.93;;
75377;SDS011;63959;51.960;5.886;2023-06-22T06:25:25;15.43;;;12.90;;
75377;SDS011;63959;51.960;5.886;2023-06-22T06:27:54;16.27;;;12.85;;
75377;SDS011;63959;51.960;5.886;2023-06-22T06:30:22;16.98;;;11.80;;
75377;SDS011;63959;51.960;5.886;2023-06-22T06:32:54;16.95;;;11.63;;
75377;SDS011;63959;51.960;5.886;2023-06-22T06:35:23;16.23;;;12.13;;
75377;SDS011;63959;51.960;5.886;2023-06-22T06:37:51;19.73;;;13.52;;
75377;SDS011;63959;51.960;5.886;2023-06-22T06:40:20;18.67;;;13.73;;
75377;SDS011;63959;51.960;5.886;2023-06-22T06:42:49;16.73;;;13.05;;
75377;SDS011;63959;51.960;5.886;2023-06-22T06:45:18;19.33;;;13.40;;
75377;SDS011;63959;51.960;5.886;2023-06-22T06:47:49;15.77;;;12.02;;
75377;SDS011;63959;51.960;5.886;2023-06-22T06:50:20;14.80;;;11.30;;
75377;SDS011;63959;51.960;5.886;2023-06-22T06:52:49;19.00;;;13.63;;
75377;SDS011;63959;51.960;5.886;2023-06-22T06:55:18;13.25;;;9.90;;
75377;SDS011;63959;51.960;5.886;2023-06-22T06:57:49;16.90;;;13.55;;
75377;SDS011;63959;51.960;5.886;2023-06-22T07:00:18;11.55;;;8.63;;
75377;SDS011;63959;51.960;5.886;2023-06-22T07:02:47;16.33;;;13.18;;
75377;SDS011;63959;51.960;5.886;2023-06-22T07:05:16;17.10;;;12.85;;
75377;SDS011;63959;51.960;5.886;2023-06-22T07:07:47;16.48;;;12.23;;
75377;SDS011;63959;51.960;5.886;2023-06-22T07:10:16;15.00;;;11.35;;
75377;SDS011;63959;51.960;5.886;2023-06-22T07:12:50;13.57;;;10.30;;
75377;SDS011;63959;51.960;5.886;2023-06-22T07:15:19;15.23;;;11.52;;
75377;SDS011;63959;51.960;5.886;2023-06-22T07:17:50;17.70;;;12.30;;
75377;SDS011;63959;51.960;5.886;2023-06-22T07:20:18;15.13;;;10.20;;
75377;SDS011;63959;51.960;5.886;2023-06-22T07:22:49;16.08;;;11.25;;
75377;SDS011;63959;51.960;5.886;2023-06-22T07:25:18;12.90;;;9.75;;
75377;SDS011;63959;51.960;5.886;2023-06-22T07:27:57;13.63;;;10.30;;
75377;SDS011;63959;51.960;5.886;2023-06-22T07:30:26;11.70;;;9.02;;
75377;SDS011;63959;51.960;5.886;2023-06-22T07:32:57;16.95;;;12.88;;
75377;SDS011;63959;51.960;5.886;2023-06-22T07:35:29;14.00;;;10.70;;
75377;SDS011;63959;51.960;5.886;2023-06-22T07:38:01;14.05;;;10.65;;
75377;SDS011;63959;51.960;5.886;2023-06-22T07:40:29;13.50;;;10.38;;
75377;SDS011;63959;51.960;5.886;2023-06-22T07:42:58;13.73;;;9.43;;
75377;SDS011;63959;51.960;5.886;2023-06-22T07:45:27;14.13;;;9.88;;
75377;SDS011;63959;51.960;5.886;2023-06-22T07:47:55;12.25;;;8.75;;
75377;SDS011;63959;51.960;5.886;2023-06-22T07:50:24;11.43;;;8.90;;
75377;SDS011;63959;51.960;5.886;2023-06-22T07:52:53;11.68;;;8.38;;
75377;SDS011;63959;51.960;5.886;2023-06-22T07:55:24;11.30;;;8.70;;
75377;SDS011;63959;51.960;5.886;2023-06-22T07:57:52;11.30;;;8.07;;
75377;SDS011;63959;51.960;5.886;2023-06-22T08:00:21;12.93;;;8.52;;
75377;SDS011;63959;51.960;5.886;2023-06-22T08:02:50;13.25;;;9.38;;
75377;SDS011;63959;51.960;5.886;2023-06-22T08:05:19;10.48;;;7.97;;
75377;SDS011;63959;51.960;5.886;2023-06-22T08:07:48;10.25;;;7.63;;
75377;SDS011;63959;51.960;5.886;2023-06-22T08:10:16;9.93;;;7.70;;
75377;SDS011;63959;51.960;5.886;2023-06-22T08:12:48;11.60;;;7.60;;
75377;SDS011;63959;51.960;5.886;2023-06-22T08:15:17;11.20;;;7.95;;
75377;SDS011;63959;51.960;5.886;2023-06-22T08:17:46;10.13;;;7.35;;
75377;SDS011;63959;51.960;5.886;2023-06-22T08:20:15;10.75;;;6.70;;
75377;SDS011;63959;51.960;5.886;2023-06-22T08:22:44;11.55;;;8.23;;
75377;SDS011;63959;51.960;5.886;2023-06-22T08:25:12;12.55;;;8.52;;
75377;SDS011;63959;51.960;5.886;2023-06-22T08:27:44;14.20;;;9.23;;
75377;SDS011;63959;51.960;5.886;2023-06-22T08:30:16;12.00;;;7.85;;
75377;SDS011;63959;51.960;5.886;2023-06-22T08:32:45;10.52;;;7.22;;
75377;SDS011;63959;51.960;5.886;2023-06-22T08:35:14;11.23;;;6.20;;
75377;SDS011;63959;51.960;5.886;2023-06-22T08:37:42;10.18;;;5.95;;
75377;SDS011;63959;51.960;5.886;2023-06-22T08:40:16;10.27;;;7.28;;
75377;SDS011;63959;51.960;5.886;2023-06-22T08:42:45;11.82;;;7.88;;
75377;SDS011;63959;51.960;5.886;2023-06-22T08:45:18;11.07;;;6.70;;
75377;SDS011;63959;51.960;5.886;2023-06-22T08:47:47;10.40;;;7.38;;
75377;SDS011;63959;51.960;5.886;2023-06-22T08:50:15;10.82;;;6.97;;
75377;SDS011;63959;51.960;5.886;2023-06-22T08:52:45;11.23;;;7.55;;
75377;SDS011;63959;51.960;5.886;2023-06-22T08:55:13;9.57;;;6.40;;
75377;SDS011;63959;51.960;5.886;2023-06-22T08:57:42;9.10;;;5.63;;
75377;SDS011;63959;51.960;5.886;2023-06-22T09:00:11;11.25;;;7.63;;
75377;SDS011;63959;51.960;5.886;2023-06-22T09:02:49;11.35;;;6.95;;
75377;SDS011;63959;51.960;5.886;2023-06-22T09:05:17;9.07;;;5.85;;
75377;SDS011;63959;51.960;5.886;2023-06-22T09:07:47;8.48;;;6.07;;
75377;SDS011;63959;51.960;5.886;2023-06-22T09:10:16;10.60;;;6.55;;
75377;SDS011;63959;51.960;5.886;2023-06-22T09:12:45;9.05;;;6.03;;
75377;SDS011;63959;51.960;5.886;2023-06-22T09:15:13;9.27;;;6.05;;
75377;SDS011;63959;51.960;5.886;2023-06-22T09:17:42;10.18;;;6.45;;
75377;SDS011;63959;51.960;5.886;2023-06-22T09:20:14;8.95;;;6.55;;
75377;SDS011;63959;51.960;5.886;2023-06-22T09:22:43;9.18;;;5.82;;
75377;SDS011;63959;51.960;5.886;2023-06-22T09:25:11;9.07;;;5.72;;
75377;SDS011;63959;51.960;5.886;2023-06-22T09:27:40;10.32;;;6.05;;
75377;SDS011;63959;51.960;5.886;2023-06-22T09:30:09;9.00;;;6.50;;
75377;SDS011;63959;51.960;5.886;2023-06-22T09:32:37;9.27;;;5.80;;
75377;SDS011;63959;51.960;5.886;2023-06-22T09:35:08;10.32;;;6.47;;
75377;SDS011;63959;51.960;5.886;2023-06-22T09:37:41;8.20;;;5.22;;
75377;SDS011;63959;51.960;5.886;2023-06-22T09:40:10;7.45;;;5.38;;
75377;SDS011;63959;51.960;5.886;2023-06-22T09:42:45;8.35;;;5.72;;
75377;SDS011;63959;51.960;5.886;2023-06-22T09:45:15;9.25;;;6.10;;
75377;SDS011;63959;51.960;5.886;2023-06-22T09:47:43;9.35;;;5.93;;
75377;SDS011;63959;51.960;5.886;2023-06-22T09:50:12;7.07;;;4.28;;
75377;SDS011;63959;51.960;5.886;2023-06-22T09:52:44;7.97;;;4.97;;
75377;SDS011;63959;51.960;5.886;2023-06-22T09:55:16;7.72;;;4.72;;
75377;SDS011;63959;51.960;5.886;2023-06-22T09:57:44;8.43;;;5.07;;
75377;SDS011;63959;51.960;5.886;2023-06-22T10:00:14;9.05;;;5.32;;
75377;SDS011;63959;51.960;5.886;2023-06-22T10:02:44;7.95;;;4.30;;
75377;SDS011;63959;51.960;5.886;2023-06-22T10:05:13;7.22;;;5.05;;
75377;SDS011;63959;51.960;5.886;2023-06-22T10:07:44;7.00;;;4.50;;
75377;SDS011;63959;51.960;5.886;2023-06-22T10:10:13;7.70;;;4.60;;
75377;SDS011;63959;51.960;5.886;2023-06-22T10:12:42;6.78;;;4.55;;
75377;SDS011;63959;51.960;5.886;2023-06-22T10:15:11;6.93;;;4.50;;
75377;SDS011;63959;51.960;5.886;2023-06-22T10:17:40;7.85;;;4.90;;
75377;SDS011;63959;51.960;5.886;2023-06-22T10:20:09;6.82;;;4.50;;
75377;SDS011;63959;51.960;5.886;2023-06-22T10:22:39;7.90;;;4.70;;
75377;SDS011;63959;51.960;5.886;2023-06-22T10:25:11;7.00;;;4.03;;
75377;SDS011;63959;51.960;5.886;2023-06-22T10:27:40;7.82;;;5.28;;
75377;SDS011;63959;51.960;5.886;2023-06-22T10:30:10;8.10;;;5.50;;
75377;SDS011;63959;51.960;5.886;2023-06-22T10:32:40;8.40;;;4.88;;
75377;SDS011;63959;51.960;5.886;2023-06-22T10:35:09;7.85;;;4.85;;
75377;SDS011;63959;51.960;5.886;2023-06-22T10:37:39;7.75;;;4.45;;
75377;SDS011;63959;51.960;5.886;2023-06-22T10:40:12;6.85;;;4.68;;
75377;SDS011;63959;51.960;5.886;2023-06-22T10:42:43;7.35;;;4.50;;
75377;SDS011;63959;51.960;5.886;2023-06-22T10:45:11;8.43;;;5.57;;
75377;SDS011;63959;51.960;5.886;2023-06-22T10:47:40;7.38;;;5.43;;
75377;SDS011;63959;51.960;5.886;2023-06-22T10:50:13;7.85;;;5.30;;
75377;SDS011;63959;51.960;5.886;2023-06-22T10:52:42;7.50;;;4.68;;
75377;SDS011;63959;51.960;5.886;2023-06-22T10:55:13;7.28;;;4.60;;
75377;SDS011;63959;51.960;5.886;2023-06-22T10:57:41;7.65;;;5.10;;
75377;SDS011;63959;51.960;5.886;2023-06-22T11:00:13;9.93;;;4.80;;
75377;SDS011;63959;51.960;5.886;2023-06-22T11:02:41;8.65;;;6.68;;
75377;SDS011;63959;51.960;5.886;2023-06-22T11:05:10;8.27;;;5.20;;
75377;SDS011;63959;51.960;5.886;2023-06-22T11:07:41;9.27;;;6.22;;
75377;SDS011;63959;51.960;5.886;2023-06-22T11:10:15;12.15;;;6.30;;
75377;SDS011;63959;51.960;5.886;2023-06-22T11:12:44;7.32;;;4.53;;
75377;SDS011;63959;51.960;5.886;2023-06-22T11:15:13;9.55;;;5.70;;
75377;SDS011;63959;51.960;5.886;2023-06-22T11:17:41;8.55;;;5.22;;
75377;SDS011;63959;51.960;5.886;2023-06-22T11:20:11;9.23;;;6.20;;
75377;SDS011;63959;51.960;5.886;2023-06-22T11:22:40;7.28;;;5.40;;
75377;SDS011;63959;51.960;5.886;2023-06-22T11:25:09;10.15;;;6.80;;
75377;SDS011;63959;51.960;5.886;2023-06-22T11:27:41;7.38;;;5.00;;
75377;SDS011;63959;51.960;5.886;2023-06-22T11:30:10;9.77;;;6.68;;
75377;SDS011;63959;51.960;5.886;2023-06-22T11:32:39;9.20;;;6.50;;
75377;SDS011;63959;51.960;5.886;2023-06-22T11:35:08;10.90;;;6.75;;
75377;SDS011;63959;51.960;5.886;2023-06-22T11:37:37;8.05;;;5.70;;
75377;SDS011;63959;51.960;5.886;2023-06-22T11:40:06;7.65;;;5.60;;
75377;SDS011;63959;51.960;5.886;2023-06-22T11:42:35;9.00;;;6.82;;
75377;SDS011;63959;51.960;5.886;2023-06-22T11:45:07;9.02;;;6.25;;
75377;SDS011;63959;51.960;5.886;2023-06-22T11:47:36;9.77;;;7.28;;
75377;SDS011;63959;51.960;5.886;2023-06-22T11:50:05;9.43;;;6.88;;
75377;SDS011;63959;51.960;5.886;2023-06-22T11:52:34;10.18;;;6.85;;
75377;SDS011;63959;51.960;5.886;2023-06-22T11:55:05;9.63;;;6.80;;
75377;SDS011;63959;51.960;5.886;2023-06-22T11:57:34;7.47;;;4.82;;
75377;SDS011;63959;51.960;5.886;2023-06-22T12:00:03;10.63;;;7.45;;
75377;SDS011;63959;51.960;5.886;2023-06-22T12:02:44;8.65;;;5.55;;
75377;SDS011;63959;51.960;5.886;2023-06-22T12:05:13;9.43;;;6.35;;
75377;SDS011;63959;51.960;5.886;2023-06-22T12:07:42;9.35;;;7.68;;
75377;SDS011;63959;51.960;5.886;2023-06-22T12:10:11;11.45;;;9.50;;
75377;SDS011;63959;51.960;5.886;2023-06-22T12:12:39;13.32;;;9.55;;
75377;SDS011;63959;51.960;5.886;2023-06-22T12:15:09;11.27;;;8.60;;
75377;SDS011;63959;51.960;5.886;2023-06-22T12:17:38;10.02;;;7.85;;
75377;SDS011;63959;51.960;5.886;2023-06-22T12:20:09;11.02;;;9.05;;
75377;SDS011;63959;51.960;5.886;2023-06-22T12:22:38;12.52;;;8.60;;
75377;SDS011;63959;51.960;5.886;2023-06-22T12:25:07;13.20;;;8.35;;
75377;SDS011;63959;51.960;5.886;2023-06-22T12:27:36;12.35;;;9.98;;
75377;SDS011;63959;51.960;5.886;2023-06-22T12:30:05;11.48;;;8.75;;
75377;SDS011;63959;51.960;5.886;2023-06-22T12:32:34;14.65;;;12.02;;
75377;SDS011;63959;51.960;5.886;2023-06-22T12:35:03;12.35;;;9.38;;
75377;SDS011;63959;51.960;5.886;2023-06-22T12:37:40;14.88;;;11.40;;
75377;SDS011;63959;51.960;5.886;2023-06-22T12:40:09;15.20;;;11.30;;
75377;SDS011;63959;51.960;5.886;2023-06-22T12:42:38;11.63;;;9.57;;
75377;SDS011;63959;51.960;5.886;2023-06-22T12:45:07;12.90;;;9.93;;
75377;SDS011;63959;51.960;5.886;2023-06-22T12:47:36;14.68;;;11.90;;
75377;SDS011;63959;51.960;5.886;2023-06-22T12:50:05;12.55;;;9.57;;
75377;SDS011;63959;51.960;5.886;2023-06-22T12:52:36;21.27;;;15.20;;
75377;SDS011;63959;51.960;5.886;2023-06-22T12:55:09;13.18;;;11.63;;
75377;SDS011;63959;51.960;5.886;2023-06-22T12:57:38;17.58;;;13.13;;
75377;SDS011;63959;51.960;5.886;2023-06-22T13:00:07;18.50;;;16.40;;
75377;SDS011;63959;51.960;5.886;2023-06-22T13:02:37;17.95;;;15.48;;
75377;SDS011;63959;51.960;5.886;2023-06-22T13:05:06;16.42;;;13.50;;
75377;SDS011;63959;51.960;5.886;2023-06-22T13:07:35;15.15;;;12.05;;
75377;SDS011;63959;51.960;5.886;2023-06-22T13:10:04;16.40;;;13.07;;
75377;SDS011;63959;51.960;5.886;2023-06-22T13:12:35;19.13;;;15.20;;
75377;SDS011;63959;51.960;5.886;2023-06-22T13:15:05;17.38;;;13.65;;
75377;SDS011;63959;51.960;5.886;2023-06-22T13:17:34;17.20;;;14.73;;
75377;SDS011;63959;51.960;5.886;2023-06-22T13:20:03;16.40;;;12.10;;
75377;SDS011;63959;51.960;5.886;2023-06-22T13:22:33;17.08;;;12.45;;
75377;SDS011;63959;51.960;5.886;2023-06-22T13:25:05;16.58;;;14.07;;
75377;SDS011;63959;51.960;5.886;2023-06-22T13:27:40;17.42;;;13.93;;
75377;SDS011;63959;51.960;5.886;2023-06-22T13:30:09;14.10;;;11.93;;
75377;SDS011;63959;51.960;5.886;2023-06-22T13:32:38;12.85;;;10.80;;
75377;SDS011;63959;51.960;5.886;2023-06-22T13:35:07;18.90;;;13.85;;
75377;SDS011;63959;51.960;5.886;2023-06-22T13:37:36;22.73;;;17.40;;
75377;SDS011;63959;51.960;5.886;2023-06-22T13:40:05;22.45;;;19.15;;
75377;SDS011;63959;51.960;5.886;2023-06-22T13:42:34;24.25;;;18.88;;
75377;SDS011;63959;51.960;5.886;2023-06-22T13:45:07;18.17;;;14.07;;
75377;SDS011;63959;51.960;5.886;2023-06-22T13:47:36;20.75;;;16.45;;
75377;SDS011;63959;51.960;5.886;2023-06-22T13:50:05;17.00;;;12.23;;
75377;SDS011;63959;51.960;5.886;2023-06-22T13:52:34;18.20;;;14.55;;
75377;SDS011;63959;51.960;5.886;2023-06-22T13:55:02;15.30;;;11.07;;
75377;SDS011;63959;51.960;5.886;2023-06-22T13:57:32;17.35;;;15.05;;
75377;SDS011;63959;51.960;5.886;2023-06-22T14:00:01;18.65;;;15.35;;
75377;SDS011;63959;51.960;5.886;2023-06-22T14:02:40;18.77;;;14.98;;
75377;SDS011;63959;51.960;5.886;2023-06-22T14:05:09;19.13;;;15.07;;
75377;SDS011;63959;51.960;5.886;2023-06-22T14:07:37;14.93;;;10.40;;
75377;SDS011;63959;51.960;5.886;2023-06-22T14:10:07;14.70;;;12.05;;
75377;SDS011;63959;51.960;5.886;2023-06-22T14:12:35;15.38;;;11.85;;
75377;SDS011;63959;51.960;5.886;2023-06-22T14:15:05;23.70;;;19.23;;
75377;SDS011;63959;51.960;5.886;2023-06-22T14:17:33;16.00;;;12.90;;
75377;SDS011;63959;51.960;5.886;2023-06-22T14:20:06;15.07;;;11.15;;
75377;SDS011;63959;51.960;5.886;2023-06-22T14:22:35;13.95;;;12.23;;
75377;SDS011;63959;51.960;5.886;2023-06-22T14:25:06;14.82;;;10.88;;
75377;SDS011;63959;51.960;5.886;2023-06-22T14:27:35;18.35;;;14.55;;
75377;SDS011;63959;51.960;5.886;2023-06-22T14:30:04;28.20;;;22.33;;
75377;SDS011;63959;51.960;5.886;2023-06-22T14:32:33;17.98;;;13.32;;
75377;SDS011;63959;51.960;5.886;2023-06-22T14:35:01;18.58;;;15.45;;
75377;SDS011;63959;51.960;5.886;2023-06-22T14:37:33;24.13;;;17.75;;
75377;SDS011;63959;51.960;5.886;2023-06-22T14:40:02;18.30;;;13.38;;
75377;SDS011;63959;51.960;5.886;2023-06-22T14:42:30;16.88;;;12.55;;
75377;SDS011;63959;51.960;5.886;2023-06-22T14:44:59;16.33;;;13.52;;
75377;SDS011;63959;51.960;5.886;2023-06-22T14:47:28;17.88;;;13.98;;
75377;SDS011;63959;51.960;5.886;2023-06-22T14:49:57;28.83;;;22.25;;
75377;SDS011;63959;51.960;5.886;2023-06-22T14:52:25;22.17;;;17.35;;